Orbital elements of SL-14 DEB
| Launched | 14 August 1991 |
| Flight ended | – |
| Launch site | Plesetsk Missile and Space Complex, Russia |
| Owner | Commonwealth of Independent States (former USSR) |
| NORAD ID | 45284 |
| Date fetched |
Epoch osculation |
Inc. [°] |
Ecc. | RA asc node [hr] |
Arg Peri. [°] |
Mean anom [°] |
Mean motion [rev/day] |
Abs. mag |
| Date fetched |
Epoch osculation |
Inc. [°] |
Ecc. | RA asc node [hr] |
Arg Peri. [°] |
Mean anom [°] |
Mean motion [rev/day] |
Abs. mag |
| 2026 May 04 17:57 | 2026 Apr 30 10:44:10 | 82.5649 | 0.01100 | 7.5529 | 9.0368 | 351.2715 | 13.45815 | – |
| 2026 May 03 17:57 | 2026 Apr 30 10:44:10 | 82.5649 | 0.01100 | 7.5529 | 9.0368 | 351.2715 | 13.45815 | – |
| 2026 May 02 17:57 | 2026 Apr 30 10:44:10 | 82.5649 | 0.01100 | 7.5529 | 9.0368 | 351.2715 | 13.45815 | – |
| 2026 May 01 17:56 | 2026 Apr 30 10:44:10 | 82.5649 | 0.01100 | 7.5529 | 9.0368 | 351.2715 | 13.45815 | – |
| 2026 Apr 30 17:56 | 2026 Apr 30 10:44:10 | 82.5649 | 0.01100 | 7.5529 | 9.0368 | 351.2715 | 13.45815 | – |
| 2026 Apr 29 17:57 | 2026 Apr 24 10:12:35 | 82.5639 | 0.01104 | 7.8509 | 24.9148 | 351.2715 | 13.45815 | – |
| 2026 Apr 28 17:56 | 2026 Apr 24 10:12:35 | 82.5639 | 0.01104 | 7.8509 | 24.9148 | 351.2715 | 13.45815 | – |
| 2026 Apr 27 17:58 | 2026 Apr 24 10:12:35 | 82.5639 | 0.01104 | 7.8509 | 24.9148 | 351.2715 | 13.45815 | – |
| 2026 Apr 26 17:58 | 2026 Apr 24 10:12:35 | 82.5639 | 0.01104 | 7.8509 | 24.9148 | 351.2715 | 13.45815 | – |
| 2026 Apr 25 17:58 | 2026 Apr 24 10:12:35 | 82.5639 | 0.01104 | 7.8509 | 24.9148 | 351.2715 | 13.45815 | – |
| 2026 Apr 24 17:59 | 2026 Apr 24 10:12:35 | 82.5639 | 0.01104 | 7.8509 | 24.9148 | 351.2715 | 13.45815 | – |
| 2026 Apr 23 17:57 | 2026 Apr 19 07:05:29 | 82.5656 | 0.01107 | 8.1047 | 38.5318 | 351.2715 | 13.45815 | – |
| 2026 Apr 22 17:57 | 2026 Apr 19 07:05:29 | 82.5656 | 0.01107 | 8.1047 | 38.5318 | 351.2715 | 13.45815 | – |
| 2026 Apr 21 17:57 | 2026 Apr 19 07:05:29 | 82.5656 | 0.01107 | 8.1047 | 38.5318 | 351.2715 | 13.45815 | – |
| 2026 Apr 20 17:57 | 2026 Apr 19 07:05:29 | 82.5656 | 0.01107 | 8.1047 | 38.5318 | 351.2715 | 13.45815 | – |
| 2026 Apr 19 17:58 | 2026 Apr 19 07:05:29 | 82.5656 | 0.01107 | 8.1047 | 38.5318 | 351.2715 | 13.45815 | – |
| 2026 Apr 18 17:56 | 2026 Apr 13 01:12:19 | 82.5650 | 0.01115 | 8.4136 | 55.2826 | 351.2715 | 13.45815 | – |
| 2026 Apr 16 17:57 | 2026 Apr 13 01:12:19 | 82.5650 | 0.01115 | 8.4136 | 55.2826 | 351.2715 | 13.45815 | – |
| 2026 Apr 14 17:57 | 2026 Apr 13 01:12:19 | 82.5650 | 0.01115 | 8.4136 | 55.2826 | 351.2715 | 13.45815 | – |
| 2026 Apr 13 17:57 | 2026 Apr 13 01:12:19 | 82.5650 | 0.01115 | 8.4136 | 55.2826 | 351.2715 | 13.45815 | – |
| 2026 Apr 12 17:57 | 2026 Apr 08 14:08:31 | 82.5647 | 0.01125 | 8.6343 | 67.3007 | 351.2715 | 13.45815 | – |
| 2026 Apr 11 17:57 | 2026 Apr 08 14:08:31 | 82.5647 | 0.01125 | 8.6343 | 67.3007 | 351.2715 | 13.45815 | – |
| 2026 Apr 10 17:58 | 2026 Apr 08 14:08:31 | 82.5647 | 0.01125 | 8.6343 | 67.3007 | 351.2715 | 13.45815 | – |
| 2026 Apr 09 18:01 | 2026 Apr 08 14:08:31 | 82.5647 | 0.01125 | 8.6343 | 67.3007 | 351.2715 | 13.45815 | – |
| 2026 Apr 08 17:57 | 2026 Apr 08 14:08:31 | 82.5647 | 0.01125 | 8.6343 | 67.3007 | 351.2715 | 13.45815 | – |
| 2026 Apr 07 17:57 | 2026 Apr 02 02:53:47 | 82.5662 | 0.01146 | 8.9542 | 84.6421 | 351.2715 | 13.45815 | – |